sensor_id;sensor_type;location;lat;lon;timestamp;P1;durP1;ratioP1;P2;durP2;ratioP2
35540;SDS011;21650;48.840;9.162;2022-10-31T00:00:19;10.40;;;5.67;;
35540;SDS011;21650;48.840;9.162;2022-10-31T00:02:45;12.10;;;5.47;;
35540;SDS011;21650;48.840;9.162;2022-10-31T00:05:11;12.50;;;5.70;;
35540;SDS011;21650;48.840;9.162;2022-10-31T00:07:36;10.90;;;5.93;;
35540;SDS011;21650;48.840;9.162;2022-10-31T00:10:02;10.20;;;4.73;;
35540;SDS011;21650;48.840;9.162;2022-10-31T00:12:28;12.57;;;5.63;;
35540;SDS011;21650;48.840;9.162;2022-10-31T00:14:53;7.23;;;5.47;;
35540;SDS011;21650;48.840;9.162;2022-10-31T00:17:19;14.37;;;5.63;;
35540;SDS011;21650;48.840;9.162;2022-10-31T00:19:44;7.63;;;5.10;;
35540;SDS011;21650;48.840;9.162;2022-10-31T00:22:10;8.67;;;5.13;;
35540;SDS011;21650;48.840;9.162;2022-10-31T00:24:35;7.17;;;5.00;;
35540;SDS011;21650;48.840;9.162;2022-10-31T00:27:01;8.33;;;5.10;;
35540;SDS011;21650;48.840;9.162;2022-10-31T00:29:27;9.60;;;4.87;;
35540;SDS011;21650;48.840;9.162;2022-10-31T00:31:52;9.93;;;5.60;;
35540;SDS011;21650;48.840;9.162;2022-10-31T00:34:18;15.03;;;5.60;;
35540;SDS011;21650;48.840;9.162;2022-10-31T00:36:43;7.87;;;5.13;;
35540;SDS011;21650;48.840;9.162;2022-10-31T00:39:09;7.60;;;4.40;;
35540;SDS011;21650;48.840;9.162;2022-10-31T00:41:35;12.43;;;5.50;;
35540;SDS011;21650;48.840;9.162;2022-10-31T00:44:00;9.67;;;5.00;;
35540;SDS011;21650;48.840;9.162;2022-10-31T00:46:26;8.53;;;5.60;;
35540;SDS011;21650;48.840;9.162;2022-10-31T00:48:52;11.10;;;5.47;;
35540;SDS011;21650;48.840;9.162;2022-10-31T00:51:17;7.03;;;4.97;;
35540;SDS011;21650;48.840;9.162;2022-10-31T00:53:43;8.27;;;5.07;;
35540;SDS011;21650;48.840;9.162;2022-10-31T00:56:08;8.97;;;4.87;;
35540;SDS011;21650;48.840;9.162;2022-10-31T00:58:34;7.40;;;5.13;;
35540;SDS011;21650;48.840;9.162;2022-10-31T01:01:00;9.50;;;5.10;;
35540;SDS011;21650;48.840;9.162;2022-10-31T01:03:30;9.43;;;5.23;;
35540;SDS011;21650;48.840;9.162;2022-10-31T01:06:07;12.13;;;5.23;;
35540;SDS011;21650;48.840;9.162;2022-10-31T01:08:35;7.97;;;4.57;;
35540;SDS011;21650;48.840;9.162;2022-10-31T01:13:31;9.37;;;4.90;;
35540;SDS011;21650;48.840;9.162;2022-10-31T01:15:58;8.07;;;4.93;;
35540;SDS011;21650;48.840;9.162;2022-10-31T01:18:24;11.20;;;5.60;;
35540;SDS011;21650;48.840;9.162;2022-10-31T01:21:25;7.60;;;5.00;;
35540;SDS011;21650;48.840;9.162;2022-10-31T01:23:46;9.23;;;5.00;;
35540;SDS011;21650;48.840;9.162;2022-10-31T01:26:14;11.03;;;5.03;;
35540;SDS011;21650;48.840;9.162;2022-10-31T01:28:46;11.10;;;4.93;;
35540;SDS011;21650;48.840;9.162;2022-10-31T01:31:13;9.60;;;4.67;;
35540;SDS011;21650;48.840;9.162;2022-10-31T01:33:38;8.80;;;5.10;;
35540;SDS011;21650;48.840;9.162;2022-10-31T01:36:15;13.10;;;4.73;;
35540;SDS011;21650;48.840;9.162;2022-10-31T01:38:47;7.93;;;4.93;;
35540;SDS011;21650;48.840;9.162;2022-10-31T01:41:17;15.53;;;5.17;;
35540;SDS011;21650;48.840;9.162;2022-10-31T01:46:25;10.43;;;5.47;;
35540;SDS011;21650;48.840;9.162;2022-10-31T01:48:55;6.50;;;4.57;;
35540;SDS011;21650;48.840;9.162;2022-10-31T01:51:27;11.13;;;5.50;;
35540;SDS011;21650;48.840;9.162;2022-10-31T01:53:56;13.20;;;5.93;;
35540;SDS011;21650;48.840;9.162;2022-10-31T01:56:25;10.80;;;5.77;;
35540;SDS011;21650;48.840;9.162;2022-10-31T01:58:52;7.17;;;5.47;;
35540;SDS011;21650;48.840;9.162;2022-10-31T02:01:19;11.27;;;5.37;;
35540;SDS011;21650;48.840;9.162;2022-10-31T02:03:44;10.60;;;5.77;;
35540;SDS011;21650;48.840;9.162;2022-10-31T02:06:24;8.50;;;5.80;;
35540;SDS011;21650;48.840;9.162;2022-10-31T02:08:57;10.07;;;5.37;;
35540;SDS011;21650;48.840;9.162;2022-10-31T02:11:25;9.50;;;5.70;;
35540;SDS011;21650;48.840;9.162;2022-10-31T02:13:53;8.63;;;5.07;;
35540;SDS011;21650;48.840;9.162;2022-10-31T02:16:19;11.43;;;5.50;;
35540;SDS011;21650;48.840;9.162;2022-10-31T02:18:44;11.00;;;5.83;;
35540;SDS011;21650;48.840;9.162;2022-10-31T02:21:15;9.33;;;5.53;;
35540;SDS011;21650;48.840;9.162;2022-10-31T02:27:05;9.47;;;5.43;;
35540;SDS011;21650;48.840;9.162;2022-10-31T02:40:37;16.13;;;6.40;;
35540;SDS011;21650;48.840;9.162;2022-10-31T02:43:12;9.27;;;5.50;;
35540;SDS011;21650;48.840;9.162;2022-10-31T02:45:50;8.23;;;5.57;;
35540;SDS011;21650;48.840;9.162;2022-10-31T02:48:32;10.10;;;5.77;;
35540;SDS011;21650;48.840;9.162;2022-10-31T02:51:01;10.27;;;6.27;;
35540;SDS011;21650;48.840;9.162;2022-10-31T02:53:33;10.53;;;5.57;;
35540;SDS011;21650;48.840;9.162;2022-10-31T02:56:00;8.90;;;5.37;;
35540;SDS011;21650;48.840;9.162;2022-10-31T02:58:31;10.30;;;6.20;;
35540;SDS011;21650;48.840;9.162;2022-10-31T03:12:04;10.17;;;5.90;;
35540;SDS011;21650;48.840;9.162;2022-10-31T03:14:48;11.67;;;5.43;;
35540;SDS011;21650;48.840;9.162;2022-10-31T03:17:21;11.73;;;5.53;;
35540;SDS011;21650;48.840;9.162;2022-10-31T03:19:52;10.70;;;5.03;;
35540;SDS011;21650;48.840;9.162;2022-10-31T03:22:20;8.80;;;6.33;;
35540;SDS011;21650;48.840;9.162;2022-10-31T03:24:52;7.27;;;5.37;;
35540;SDS011;21650;48.840;9.162;2022-10-31T03:27:21;8.40;;;5.47;;
35540;SDS011;21650;48.840;9.162;2022-10-31T03:29:50;9.87;;;6.50;;
35540;SDS011;21650;48.840;9.162;2022-10-31T03:32:19;14.67;;;5.43;;
35540;SDS011;21650;48.840;9.162;2022-10-31T03:34:53;16.50;;;5.43;;
35540;SDS011;21650;48.840;9.162;2022-10-31T03:37:21;8.57;;;5.30;;
35540;SDS011;21650;48.840;9.162;2022-10-31T03:39:49;9.97;;;5.33;;
35540;SDS011;21650;48.840;9.162;2022-10-31T03:42:18;11.17;;;5.07;;
35540;SDS011;21650;48.840;9.162;2022-10-31T03:44:50;8.27;;;5.27;;
35540;SDS011;21650;48.840;9.162;2022-10-31T03:47:23;13.67;;;5.37;;
35540;SDS011;21650;48.840;9.162;2022-10-31T03:49:49;6.90;;;5.23;;
35540;SDS011;21650;48.840;9.162;2022-10-31T03:52:26;12.80;;;5.53;;
35540;SDS011;21650;48.840;9.162;2022-10-31T03:54:59;7.87;;;5.07;;
35540;SDS011;21650;48.840;9.162;2022-10-31T04:00:13;9.33;;;4.43;;
35540;SDS011;21650;48.840;9.162;2022-10-31T04:02:42;6.50;;;4.60;;
35540;SDS011;21650;48.840;9.162;2022-10-31T04:05:28;11.17;;;5.10;;
35540;SDS011;21650;48.840;9.162;2022-10-31T04:07:55;6.83;;;5.00;;
35540;SDS011;21650;48.840;9.162;2022-10-31T04:10:24;12.13;;;5.10;;
35540;SDS011;21650;48.840;9.162;2022-10-31T04:12:56;9.47;;;6.23;;
35540;SDS011;21650;48.840;9.162;2022-10-31T04:15:26;11.00;;;5.07;;
35540;SDS011;21650;48.840;9.162;2022-10-31T04:17:54;7.23;;;5.07;;
35540;SDS011;21650;48.840;9.162;2022-10-31T04:20:35;9.97;;;5.30;;
35540;SDS011;21650;48.840;9.162;2022-10-31T04:23:02;6.73;;;4.47;;
35540;SDS011;21650;48.840;9.162;2022-10-31T04:25:28;14.13;;;5.17;;
35540;SDS011;21650;48.840;9.162;2022-10-31T04:27:54;10.53;;;5.60;;
35540;SDS011;21650;48.840;9.162;2022-10-31T04:30:20;8.73;;;5.03;;
35540;SDS011;21650;48.840;9.162;2022-10-31T04:32:46;10.47;;;4.67;;
35540;SDS011;21650;48.840;9.162;2022-10-31T04:35:12;11.00;;;5.80;;
35540;SDS011;21650;48.840;9.162;2022-10-31T04:37:37;7.47;;;4.93;;
35540;SDS011;21650;48.840;9.162;2022-10-31T04:40:03;7.00;;;5.17;;
35540;SDS011;21650;48.840;9.162;2022-10-31T04:42:30;8.37;;;5.13;;
35540;SDS011;21650;48.840;9.162;2022-10-31T04:44:56;10.30;;;5.70;;
35540;SDS011;21650;48.840;9.162;2022-10-31T04:47:22;7.03;;;4.73;;
35540;SDS011;21650;48.840;9.162;2022-10-31T04:49:47;8.07;;;4.90;;
35540;SDS011;21650;48.840;9.162;2022-10-31T04:52:13;10.33;;;4.70;;
35540;SDS011;21650;48.840;9.162;2022-10-31T04:54:39;11.40;;;5.27;;
35540;SDS011;21650;48.840;9.162;2022-10-31T04:57:04;7.23;;;4.83;;
35540;SDS011;21650;48.840;9.162;2022-10-31T04:59:30;6.97;;;4.60;;
35540;SDS011;21650;48.840;9.162;2022-10-31T05:01:55;9.77;;;5.10;;
35540;SDS011;21650;48.840;9.162;2022-10-31T05:04:21;6.47;;;4.87;;
35540;SDS011;21650;48.840;9.162;2022-10-31T05:06:47;12.20;;;5.33;;
35540;SDS011;21650;48.840;9.162;2022-10-31T05:09:12;9.20;;;5.20;;
35540;SDS011;21650;48.840;9.162;2022-10-31T05:11:38;8.00;;;4.80;;
35540;SDS011;21650;48.840;9.162;2022-10-31T05:14:03;9.27;;;4.50;;
35540;SDS011;21650;48.840;9.162;2022-10-31T05:16:29;9.53;;;5.47;;
35540;SDS011;21650;48.840;9.162;2022-10-31T05:18:54;8.43;;;4.80;;
35540;SDS011;21650;48.840;9.162;2022-10-31T05:21:20;7.37;;;5.07;;
35540;SDS011;21650;48.840;9.162;2022-10-31T05:23:46;9.90;;;5.00;;
35540;SDS011;21650;48.840;9.162;2022-10-31T05:26:11;9.97;;;5.17;;
35540;SDS011;21650;48.840;9.162;2022-10-31T05:28:37;5.60;;;4.20;;
35540;SDS011;21650;48.840;9.162;2022-10-31T05:31:02;8.03;;;4.80;;
35540;SDS011;21650;48.840;9.162;2022-10-31T05:33:28;7.17;;;5.03;;
35540;SDS011;21650;48.840;9.162;2022-10-31T05:35:53;10.53;;;5.27;;
35540;SDS011;21650;48.840;9.162;2022-10-31T05:38:19;9.23;;;5.20;;
35540;SDS011;21650;48.840;9.162;2022-10-31T05:40:44;9.03;;;4.73;;
35540;SDS011;21650;48.840;9.162;2022-10-31T05:43:10;12.53;;;5.00;;
35540;SDS011;21650;48.840;9.162;2022-10-31T05:45:35;10.70;;;5.27;;
35540;SDS011;21650;48.840;9.162;2022-10-31T05:48:01;9.07;;;6.50;;
35540;SDS011;21650;48.840;9.162;2022-10-31T05:50:28;12.07;;;5.17;;
35540;SDS011;21650;48.840;9.162;2022-10-31T05:53:03;11.57;;;5.00;;
35540;SDS011;21650;48.840;9.162;2022-10-31T05:55:29;9.70;;;5.30;;
35540;SDS011;21650;48.840;9.162;2022-10-31T05:57:56;11.10;;;5.47;;
35540;SDS011;21650;48.840;9.162;2022-10-31T06:00:22;14.47;;;5.40;;
35540;SDS011;21650;48.840;9.162;2022-10-31T06:02:48;10.13;;;5.60;;
35540;SDS011;21650;48.840;9.162;2022-10-31T06:05:14;11.13;;;5.90;;
35540;SDS011;21650;48.840;9.162;2022-10-31T06:07:41;9.93;;;5.33;;
35540;SDS011;21650;48.840;9.162;2022-10-31T06:10:07;11.40;;;4.80;;
35540;SDS011;21650;48.840;9.162;2022-10-31T06:12:33;8.90;;;5.43;;
35540;SDS011;21650;48.840;9.162;2022-10-31T06:15:03;12.50;;;5.73;;
35540;SDS011;21650;48.840;9.162;2022-10-31T06:17:30;9.67;;;6.30;;
35540;SDS011;21650;48.840;9.162;2022-10-31T06:19:55;10.90;;;6.10;;
35540;SDS011;21650;48.840;9.162;2022-10-31T06:22:21;12.03;;;6.67;;
35540;SDS011;21650;48.840;9.162;2022-10-31T06:24:46;13.27;;;6.33;;
35540;SDS011;21650;48.840;9.162;2022-10-31T06:27:12;12.83;;;6.13;;
35540;SDS011;21650;48.840;9.162;2022-10-31T06:29:37;14.77;;;5.77;;
35540;SDS011;21650;48.840;9.162;2022-10-31T06:32:03;12.37;;;6.27;;
35540;SDS011;21650;48.840;9.162;2022-10-31T06:34:29;10.27;;;5.50;;
35540;SDS011;21650;48.840;9.162;2022-10-31T06:36:54;10.33;;;5.27;;
35540;SDS011;21650;48.840;9.162;2022-10-31T06:39:20;8.13;;;5.10;;
35540;SDS011;21650;48.840;9.162;2022-10-31T06:41:47;14.97;;;6.27;;
35540;SDS011;21650;48.840;9.162;2022-10-31T06:44:13;13.40;;;6.10;;
35540;SDS011;21650;48.840;9.162;2022-10-31T06:46:38;12.43;;;6.47;;
35540;SDS011;21650;48.840;9.162;2022-10-31T06:49:04;9.63;;;6.07;;
35540;SDS011;21650;48.840;9.162;2022-10-31T06:51:30;11.07;;;5.93;;
35540;SDS011;21650;48.840;9.162;2022-10-31T06:53:55;12.00;;;5.90;;
35540;SDS011;21650;48.840;9.162;2022-10-31T06:56:21;12.80;;;5.53;;
35540;SDS011;21650;48.840;9.162;2022-10-31T06:58:46;8.03;;;5.63;;
35540;SDS011;21650;48.840;9.162;2022-10-31T07:01:12;9.13;;;5.83;;
35540;SDS011;21650;48.840;9.162;2022-10-31T07:03:37;10.70;;;6.73;;
35540;SDS011;21650;48.840;9.162;2022-10-31T07:06:03;14.47;;;7.27;;
35540;SDS011;21650;48.840;9.162;2022-10-31T07:08:29;9.53;;;7.20;;
35540;SDS011;21650;48.840;9.162;2022-10-31T07:10:55;11.30;;;6.80;;
35540;SDS011;21650;48.840;9.162;2022-10-31T07:13:22;11.70;;;6.83;;
35540;SDS011;21650;48.840;9.162;2022-10-31T07:15:52;12.30;;;6.63;;
35540;SDS011;21650;48.840;9.162;2022-10-31T07:18:19;9.60;;;7.00;;
35540;SDS011;21650;48.840;9.162;2022-10-31T07:20:45;11.93;;;7.17;;
35540;SDS011;21650;48.840;9.162;2022-10-31T07:23:11;13.70;;;7.27;;
35540;SDS011;21650;48.840;9.162;2022-10-31T07:25:38;14.73;;;6.50;;
35540;SDS011;21650;48.840;9.162;2022-10-31T07:28:04;11.87;;;6.63;;
35540;SDS011;21650;48.840;9.162;2022-10-31T07:30:30;12.80;;;6.63;;
35540;SDS011;21650;48.840;9.162;2022-10-31T07:32:56;11.13;;;7.10;;
35540;SDS011;21650;48.840;9.162;2022-10-31T07:35:23;12.67;;;6.90;;
35540;SDS011;21650;48.840;9.162;2022-10-31T07:37:51;11.03;;;7.33;;
35540;SDS011;21650;48.840;9.162;2022-10-31T07:40:18;13.20;;;7.37;;
35540;SDS011;21650;48.840;9.162;2022-10-31T07:42:45;11.97;;;7.30;;
35540;SDS011;21650;48.840;9.162;2022-10-31T07:45:12;11.43;;;6.63;;
35540;SDS011;21650;48.840;9.162;2022-10-31T07:50:06;12.03;;;6.27;;
35540;SDS011;21650;48.840;9.162;2022-10-31T07:52:33;11.13;;;6.70;;
35540;SDS011;21650;48.840;9.162;2022-10-31T07:54:58;11.53;;;6.07;;
35540;SDS011;21650;48.840;9.162;2022-10-31T07:57:24;13.63;;;6.53;;
35540;SDS011;21650;48.840;9.162;2022-10-31T07:59:50;10.27;;;6.47;;
35540;SDS011;21650;48.840;9.162;2022-10-31T08:02:15;11.87;;;6.30;;
35540;SDS011;21650;48.840;9.162;2022-10-31T08:04:41;11.37;;;7.43;;
35540;SDS011;21650;48.840;9.162;2022-10-31T08:07:07;11.50;;;6.70;;
35540;SDS011;21650;48.840;9.162;2022-10-31T08:09:32;10.50;;;6.20;;
35540;SDS011;21650;48.840;9.162;2022-10-31T08:11:58;13.03;;;6.57;;
35540;SDS011;21650;48.840;9.162;2022-10-31T08:14:24;11.33;;;6.43;;
35540;SDS011;21650;48.840;9.162;2022-10-31T08:16:49;10.13;;;6.13;;
35540;SDS011;21650;48.840;9.162;2022-10-31T08:19:15;12.17;;;6.27;;
35540;SDS011;21650;48.840;9.162;2022-10-31T08:21:40;10.37;;;6.33;;
35540;SDS011;21650;48.840;9.162;2022-10-31T08:24:06;13.37;;;7.33;;
35540;SDS011;21650;48.840;9.162;2022-10-31T08:26:31;9.53;;;6.80;;
35540;SDS011;21650;48.840;9.162;2022-10-31T08:28:57;9.90;;;6.73;;
35540;SDS011;21650;48.840;9.162;2022-10-31T08:31:23;12.77;;;6.17;;
35540;SDS011;21650;48.840;9.162;2022-10-31T08:33:51;9.80;;;6.93;;
35540;SDS011;21650;48.840;9.162;2022-10-31T08:36:17;11.17;;;6.87;;
35540;SDS011;21650;48.840;9.162;2022-10-31T08:38:43;9.77;;;6.73;;
35540;SDS011;21650;48.840;9.162;2022-10-31T08:41:08;12.13;;;7.07;;
35540;SDS011;21650;48.840;9.162;2022-10-31T08:43:34;12.33;;;7.40;;
35540;SDS011;21650;48.840;9.162;2022-10-31T08:45:59;10.97;;;7.47;;
35540;SDS011;21650;48.840;9.162;2022-10-31T08:48:25;13.83;;;7.77;;
35540;SDS011;21650;48.840;9.162;2022-10-31T08:50:50;8.67;;;6.77;;
35540;SDS011;21650;48.840;9.162;2022-10-31T08:53:17;12.87;;;7.43;;
35540;SDS011;21650;48.840;9.162;2022-10-31T08:55:44;14.63;;;6.83;;
35540;SDS011;21650;48.840;9.162;2022-10-31T08:58:14;12.83;;;7.60;;
35540;SDS011;21650;48.840;9.162;2022-10-31T09:00:41;10.03;;;6.90;;
35540;SDS011;21650;48.840;9.162;2022-10-31T09:03:13;16.33;;;6.93;;
35540;SDS011;21650;48.840;9.162;2022-10-31T09:05:40;10.43;;;6.50;;
35540;SDS011;21650;48.840;9.162;2022-10-31T09:08:06;9.33;;;6.43;;
35540;SDS011;21650;48.840;9.162;2022-10-31T09:10:34;13.10;;;6.33;;
35540;SDS011;21650;48.840;9.162;2022-10-31T09:13:01;11.60;;;6.50;;
35540;SDS011;21650;48.840;9.162;2022-10-31T09:15:31;11.80;;;6.50;;
35540;SDS011;21650;48.840;9.162;2022-10-31T09:17:58;11.63;;;7.50;;
35540;SDS011;21650;48.840;9.162;2022-10-31T09:20:24;10.37;;;8.47;;
35540;SDS011;21650;48.840;9.162;2022-10-31T09:23:00;9.67;;;6.50;;
35540;SDS011;21650;48.840;9.162;2022-10-31T09:25:27;9.13;;;7.20;;
35540;SDS011;21650;48.840;9.162;2022-10-31T09:27:56;13.50;;;7.33;;
35540;SDS011;21650;48.840;9.162;2022-10-31T09:30:23;12.10;;;7.07;;
35540;SDS011;21650;48.840;9.162;2022-10-31T09:32:56;12.87;;;6.77;;
35540;SDS011;21650;48.840;9.162;2022-10-31T09:35:27;12.83;;;7.03;;
35540;SDS011;21650;48.840;9.162;2022-10-31T09:37:53;17.27;;;7.20;;
35540;SDS011;21650;48.840;9.162;2022-10-31T09:46:06;11.63;;;7.60;;
35540;SDS011;21650;48.840;9.162;2022-10-31T09:51:45;14.90;;;6.97;;
35540;SDS011;21650;48.840;9.162;2022-10-31T09:54:19;13.80;;;7.37;;
35540;SDS011;21650;48.840;9.162;2022-10-31T09:56:57;8.83;;;7.03;;
35540;SDS011;21650;48.840;9.162;2022-10-31T09:59:33;12.00;;;7.37;;
35540;SDS011;21650;48.840;9.162;2022-10-31T10:02:02;14.33;;;7.03;;
35540;SDS011;21650;48.840;9.162;2022-10-31T10:04:40;16.57;;;7.57;;
35540;SDS011;21650;48.840;9.162;2022-10-31T10:21:30;10.30;;;6.13;;
35540;SDS011;21650;48.840;9.162;2022-10-31T10:26:53;13.47;;;7.20;;
35540;SDS011;21650;48.840;9.162;2022-10-31T10:29:29;13.27;;;7.30;;
35540;SDS011;21650;48.840;9.162;2022-10-31T10:32:12;10.90;;;6.90;;
35540;SDS011;21650;48.840;9.162;2022-10-31T10:34:50;10.27;;;7.10;;
35540;SDS011;21650;48.840;9.162;2022-10-31T10:40:06;12.43;;;7.40;;
35540;SDS011;21650;48.840;9.162;2022-10-31T10:42:35;9.93;;;7.63;;
35540;SDS011;21650;48.840;9.162;2022-10-31T10:45:20;10.57;;;7.03;;
35540;SDS011;21650;48.840;9.162;2022-10-31T10:48:11;13.67;;;7.00;;
35540;SDS011;21650;48.840;9.162;2022-10-31T10:50:50;12.47;;;7.50;;
35540;SDS011;21650;48.840;9.162;2022-10-31T10:56:17;9.60;;;6.03;;
35540;SDS011;21650;48.840;9.162;2022-10-31T10:58:52;12.23;;;7.03;;
35540;SDS011;21650;48.840;9.162;2022-10-31T11:01:21;14.70;;;7.13;;
35540;SDS011;21650;48.840;9.162;2022-10-31T11:03:47;18.10;;;7.97;;
35540;SDS011;21650;48.840;9.162;2022-10-31T11:06:19;16.90;;;8.30;;
35540;SDS011;21650;48.840;9.162;2022-10-31T11:08:51;16.60;;;6.63;;
35540;SDS011;21650;48.840;9.162;2022-10-31T11:13:46;14.57;;;8.67;;
35540;SDS011;21650;48.840;9.162;2022-10-31T11:18:50;12.73;;;7.27;;
35540;SDS011;21650;48.840;9.162;2022-10-31T11:21:27;16.17;;;6.83;;
35540;SDS011;21650;48.840;9.162;2022-10-31T11:26:34;10.63;;;8.00;;
35540;SDS011;21650;48.840;9.162;2022-10-31T11:29:00;11.43;;;6.60;;
35540;SDS011;21650;48.840;9.162;2022-10-31T11:31:28;15.50;;;6.53;;
35540;SDS011;21650;48.840;9.162;2022-10-31T11:33:59;10.90;;;6.63;;
35540;SDS011;21650;48.840;9.162;2022-10-31T11:36:29;15.03;;;6.63;;
35540;SDS011;21650;48.840;9.162;2022-10-31T11:38:56;11.43;;;6.57;;
35540;SDS011;21650;48.840;9.162;2022-10-31T11:41:28;12.07;;;6.27;;
35540;SDS011;21650;48.840;9.162;2022-10-31T11:43:59;11.10;;;6.70;;
35540;SDS011;21650;48.840;9.162;2022-10-31T11:46:34;10.67;;;6.57;;
35540;SDS011;21650;48.840;9.162;2022-10-31T11:49:03;12.77;;;6.60;;
35540;SDS011;21650;48.840;9.162;2022-10-31T11:51:34;11.50;;;6.47;;
35540;SDS011;21650;48.840;9.162;2022-10-31T11:54:01;9.40;;;6.40;;
35540;SDS011;21650;48.840;9.162;2022-10-31T11:56:39;14.97;;;8.30;;
35540;SDS011;21650;48.840;9.162;2022-10-31T11:59:14;16.57;;;5.83;;
35540;SDS011;21650;48.840;9.162;2022-10-31T12:01:46;8.70;;;6.00;;
35540;SDS011;21650;48.840;9.162;2022-10-31T12:04:14;16.47;;;6.60;;
35540;SDS011;21650;48.840;9.162;2022-10-31T12:06:42;14.33;;;6.37;;
35540;SDS011;21650;48.840;9.162;2022-10-31T12:11:48;12.40;;;6.37;;
35540;SDS011;21650;48.840;9.162;2022-10-31T12:14:45;13.93;;;6.80;;
35540;SDS011;21650;48.840;9.162;2022-10-31T12:17:27;10.97;;;6.10;;
35540;SDS011;21650;48.840;9.162;2022-10-31T12:31:11;13.43;;;6.40;;
35540;SDS011;21650;48.840;9.162;2022-10-31T12:47:41;14.80;;;5.47;;
35540;SDS011;21650;48.840;9.162;2022-10-31T12:50:25;11.93;;;6.30;;
35540;SDS011;21650;48.840;9.162;2022-10-31T12:58:33;13.10;;;7.03;;
35540;SDS011;21650;48.840;9.162;2022-10-31T13:01:14;11.53;;;6.30;;
35540;SDS011;21650;48.840;9.162;2022-10-31T13:03:51;14.87;;;6.13;;
35540;SDS011;21650;48.840;9.162;2022-10-31T13:06:39;14.70;;;6.83;;
35540;SDS011;21650;48.840;9.162;2022-10-31T13:09:10;11.67;;;7.20;;
35540;SDS011;21650;48.840;9.162;2022-10-31T13:11:42;13.03;;;8.07;;
35540;SDS011;21650;48.840;9.162;2022-10-31T13:14:36;14.47;;;7.27;;
35540;SDS011;21650;48.840;9.162;2022-10-31T13:17:03;13.80;;;8.03;;
35540;SDS011;21650;48.840;9.162;2022-10-31T13:19:31;15.63;;;7.83;;
35540;SDS011;21650;48.840;9.162;2022-10-31T13:22:09;10.87;;;6.50;;
35540;SDS011;21650;48.840;9.162;2022-10-31T13:24:57;14.73;;;6.70;;
35540;SDS011;21650;48.840;9.162;2022-10-31T13:27:28;12.93;;;6.63;;
35540;SDS011;21650;48.840;9.162;2022-10-31T13:30:03;12.57;;;5.97;;
35540;SDS011;21650;48.840;9.162;2022-10-31T13:38:31;10.97;;;5.73;;
35540;SDS011;21650;48.840;9.162;2022-10-31T13:43:59;9.90;;;6.67;;
35540;SDS011;21650;48.840;9.162;2022-10-31T13:46:41;12.20;;;6.83;;
35540;SDS011;21650;48.840;9.162;2022-10-31T13:54:37;18.77;;;6.63;;
35540;SDS011;21650;48.840;9.162;2022-10-31T13:57:12;13.43;;;6.93;;
35540;SDS011;21650;48.840;9.162;2022-10-31T13:59:45;16.47;;;6.67;;
35540;SDS011;21650;48.840;9.162;2022-10-31T14:02:17;15.73;;;6.37;;
35540;SDS011;21650;48.840;9.162;2022-10-31T14:04:48;13.17;;;6.63;;
35540;SDS011;21650;48.840;9.162;2022-10-31T14:07:18;17.77;;;6.80;;
35540;SDS011;21650;48.840;9.162;2022-10-31T14:12:46;12.63;;;6.23;;
35540;SDS011;21650;48.840;9.162;2022-10-31T14:15:17;10.80;;;6.47;;
35540;SDS011;21650;48.840;9.162;2022-10-31T14:17:53;13.03;;;7.07;;
35540;SDS011;21650;48.840;9.162;2022-10-31T14:20:22;12.50;;;5.90;;
35540;SDS011;21650;48.840;9.162;2022-10-31T14:22:55;16.30;;;6.47;;
35540;SDS011;21650;48.840;9.162;2022-10-31T14:25:33;15.50;;;7.23;;
35540;SDS011;21650;48.840;9.162;2022-10-31T14:28:01;13.70;;;6.60;;
35540;SDS011;21650;48.840;9.162;2022-10-31T14:30:55;13.33;;;6.47;;
35540;SDS011;21650;48.840;9.162;2022-10-31T14:33:22;15.10;;;7.57;;
35540;SDS011;21650;48.840;9.162;2022-10-31T14:36:26;12.87;;;7.47;;
35540;SDS011;21650;48.840;9.162;2022-10-31T14:41:28;13.23;;;6.80;;
35540;SDS011;21650;48.840;9.162;2022-10-31T14:47:01;14.80;;;6.93;;
35540;SDS011;21650;48.840;9.162;2022-10-31T14:52:27;15.60;;;7.67;;
35540;SDS011;21650;48.840;9.162;2022-10-31T14:54:53;14.87;;;5.73;;
35540;SDS011;21650;48.840;9.162;2022-10-31T14:57:25;12.37;;;6.70;;
35540;SDS011;21650;48.840;9.162;2022-10-31T14:59:55;11.33;;;6.37;;
35540;SDS011;21650;48.840;9.162;2022-10-31T15:03:15;10.50;;;6.73;;
35540;SDS011;21650;48.840;9.162;2022-10-31T15:05:27;12.47;;;6.80;;
35540;SDS011;21650;48.840;9.162;2022-10-31T15:07:55;14.27;;;6.17;;
35540;SDS011;21650;48.840;9.162;2022-10-31T15:12:50;11.47;;;6.60;;
35540;SDS011;21650;48.840;9.162;2022-10-31T15:15:18;9.83;;;6.00;;
35540;SDS011;21650;48.840;9.162;2022-10-31T15:17:54;18.20;;;6.93;;
35540;SDS011;21650;48.840;9.162;2022-10-31T15:20:23;22.30;;;7.30;;
35540;SDS011;21650;48.840;9.162;2022-10-31T15:22:51;11.90;;;6.77;;
35540;SDS011;21650;48.840;9.162;2022-10-31T15:25:19;13.23;;;6.30;;
35540;SDS011;21650;48.840;9.162;2022-10-31T15:27:49;12.93;;;6.77;;
35540;SDS011;21650;48.840;9.162;2022-10-31T15:30:20;16.43;;;6.73;;
35540;SDS011;21650;48.840;9.162;2022-10-31T15:32:48;13.63;;;6.20;;
35540;SDS011;21650;48.840;9.162;2022-10-31T15:37:56;13.50;;;6.87;;
35540;SDS011;21650;48.840;9.162;2022-10-31T15:40:23;14.30;;;6.97;;
35540;SDS011;21650;48.840;9.162;2022-10-31T15:42:57;15.30;;;6.67;;
35540;SDS011;21650;48.840;9.162;2022-10-31T15:45:27;14.17;;;7.07;;
35540;SDS011;21650;48.840;9.162;2022-10-31T15:50:37;13.80;;;6.57;;
35540;SDS011;21650;48.840;9.162;2022-10-31T15:53:05;11.97;;;7.90;;
35540;SDS011;21650;48.840;9.162;2022-10-31T15:55:53;12.03;;;7.07;;
35540;SDS011;21650;48.840;9.162;2022-10-31T15:58:22;12.33;;;7.27;;
35540;SDS011;21650;48.840;9.162;2022-10-31T16:01:01;14.70;;;7.83;;
35540;SDS011;21650;48.840;9.162;2022-10-31T16:03:43;16.63;;;7.27;;
35540;SDS011;21650;48.840;9.162;2022-10-31T16:06:19;13.40;;;8.20;;
35540;SDS011;21650;48.840;9.162;2022-10-31T16:08:45;11.10;;;6.73;;
35540;SDS011;21650;48.840;9.162;2022-10-31T16:11:15;13.17;;;7.63;;
35540;SDS011;21650;48.840;9.162;2022-10-31T16:14:02;14.27;;;6.97;;
35540;SDS011;21650;48.840;9.162;2022-10-31T16:16:28;13.33;;;7.37;;
35540;SDS011;21650;48.840;9.162;2022-10-31T16:18:55;11.73;;;7.23;;
35540;SDS011;21650;48.840;9.162;2022-10-31T16:21:24;15.83;;;6.87;;
35540;SDS011;21650;48.840;9.162;2022-10-31T16:23:57;18.63;;;8.70;;
35540;SDS011;21650;48.840;9.162;2022-10-31T16:26:26;15.20;;;8.90;;
35540;SDS011;21650;48.840;9.162;2022-10-31T16:28:53;14.40;;;8.40;;
35540;SDS011;21650;48.840;9.162;2022-10-31T16:31:35;17.33;;;10.10;;
35540;SDS011;21650;48.840;9.162;2022-10-31T16:34:10;13.73;;;8.50;;
35540;SDS011;21650;48.840;9.162;2022-10-31T16:36:44;17.70;;;8.57;;
35540;SDS011;21650;48.840;9.162;2022-10-31T16:39:10;16.93;;;8.40;;
35540;SDS011;21650;48.840;9.162;2022-10-31T16:41:39;13.70;;;8.10;;
35540;SDS011;21650;48.840;9.162;2022-10-31T16:44:17;15.67;;;8.60;;
35540;SDS011;21650;48.840;9.162;2022-10-31T16:46:46;17.87;;;9.40;;
35540;SDS011;21650;48.840;9.162;2022-10-31T16:49:12;23.47;;;9.30;;
35540;SDS011;21650;48.840;9.162;2022-10-31T16:51:40;14.30;;;8.07;;
35540;SDS011;21650;48.840;9.162;2022-10-31T16:54:06;16.47;;;9.40;;
35540;SDS011;21650;48.840;9.162;2022-10-31T16:56:32;18.10;;;9.17;;
35540;SDS011;21650;48.840;9.162;2022-10-31T16:58:59;16.33;;;11.20;;
35540;SDS011;21650;48.840;9.162;2022-10-31T17:01:27;23.93;;;13.00;;
35540;SDS011;21650;48.840;9.162;2022-10-31T17:03:53;49.80;;;27.90;;
35540;SDS011;21650;48.840;9.162;2022-10-31T17:06:19;79.10;;;46.77;;
35540;SDS011;21650;48.840;9.162;2022-10-31T17:08:44;139.93;;;80.17;;
35540;SDS011;21650;48.840;9.162;2022-10-31T17:11:13;213.17;;;120.03;;
35540;SDS011;21650;48.840;9.162;2022-10-31T17:13:42;221.83;;;125.23;;